createdAt,value
2018-04-15T00:00:00.203Z,32.93
2018-04-15T00:02:28.571Z,33.47
2018-04-15T00:04:56.807Z,32.37
2018-04-15T00:07:25.055Z,34.63
2018-04-15T00:09:54.354Z,37.60
2018-04-15T00:12:22.644Z,38.67
2018-04-15T00:14:51.651Z,37.00
2018-04-15T00:17:19.886Z,35.53
2018-04-15T00:19:48.131Z,37.07
2018-04-15T00:22:16.376Z,36.33
2018-04-15T00:24:44.611Z,40.27
2018-04-15T00:27:12.854Z,43.80
2018-04-15T00:29:41.086Z,43.67
2018-04-15T00:32:09.331Z,42.73
2018-04-15T00:34:37.569Z,43.23
2018-04-15T00:37:05.810Z,40.83
2018-04-15T00:39:34.042Z,41.00
2018-04-15T00:42:02.790Z,42.10
2018-04-15T00:44:31.023Z,42.17
2018-04-15T00:46:59.280Z,40.60
2018-04-15T00:49:27.522Z,42.60
2018-04-15T00:51:55.747Z,42.57
2018-04-15T00:54:24.763Z,42.77
2018-04-15T00:56:52.998Z,42.70
2018-04-15T00:59:21.234Z,43.93
2018-04-15T01:01:49.467Z,43.43
2018-04-15T01:04:17.716Z,43.23
2018-04-15T01:06:46.297Z,42.90
2018-04-15T01:09:14.515Z,44.23
2018-04-15T01:11:42.746Z,45.80
2018-04-15T01:14:11.000Z,45.97
2018-04-15T01:16:39.234Z,46.90
2018-04-15T01:19:07.489Z,47.67
2018-04-15T01:21:36.487Z,47.90
2018-04-15T01:24:04.744Z,47.90
2018-04-15T01:26:34.039Z,50.87
2018-04-15T01:29:03.060Z,48.73
2018-04-15T01:31:31.295Z,50.47
2018-04-15T01:33:59.538Z,50.53
2018-04-15T01:36:27.779Z,52.13
2018-04-15T01:38:56.329Z,52.77
2018-04-15T01:41:24.552Z,52.53
2018-04-15T01:43:52.799Z,53.00
2018-04-15T01:46:21.796Z,53.10
2018-04-15T01:48:50.051Z,52.67
2018-04-15T01:51:19.059Z,53.10
2018-04-15T01:53:47.291Z,54.13
2018-04-15T01:56:15.544Z,53.57
2018-04-15T01:58:43.779Z,52.87
2018-04-15T02:01:12.036Z,52.23
2018-04-15T02:03:41.039Z,54.13
2018-04-15T02:06:10.051Z,52.83
2018-04-15T02:08:38.290Z,51.80
2018-04-15T02:11:07.322Z,53.33
2018-04-15T02:13:35.563Z,53.13
2018-04-15T02:16:04.583Z,52.80
2018-04-15T02:18:32.819Z,52.93
2018-04-15T02:21:01.851Z,54.43
2018-04-15T02:23:30.086Z,54.60
2018-04-15T02:25:59.104Z,54.00
2018-04-15T02:28:27.351Z,54.23
2018-04-15T02:30:56.371Z,53.27
2018-04-15T02:33:24.611Z,55.23
2018-04-15T02:35:52.866Z,53.90
2018-04-15T02:38:21.107Z,55.10
2018-04-15T02:40:49.369Z,53.93
2018-04-15T02:43:17.597Z,52.70
2018-04-15T02:45:45.854Z,52.57
2018-04-15T02:48:14.087Z,54.70
2018-04-15T02:50:42.339Z,54.53
2018-04-15T02:53:11.334Z,52.07
2018-04-15T02:55:40.355Z,51.93
2018-04-15T02:58:08.598Z,51.77
2018-04-15T03:00:37.891Z,51.90
2018-04-15T03:03:06.128Z,51.07
2018-04-15T03:08:08.904Z,49.63
2018-04-15T03:10:37.162Z,50.83
2018-04-15T03:13:05.402Z,49.83
2018-04-15T03:15:33.636Z,48.90
2018-04-15T03:18:01.884Z,49.50
2018-04-15T03:20:30.112Z,48.03
2018-04-15T03:22:58.359Z,48.50
2018-04-15T03:25:27.081Z,49.73
2018-04-15T03:27:55.303Z,48.03
2018-04-15T03:30:23.543Z,47.83
2018-04-15T03:32:52.552Z,48.13
2018-04-15T03:35:20.783Z,49.10
2018-04-15T03:37:49.032Z,48.17
2018-04-15T03:40:17.271Z,48.37
2018-04-15T03:42:45.519Z,47.13
2018-04-15T03:45:13.751Z,47.10
2018-04-15T03:47:41.995Z,48.10
2018-04-15T03:50:10.222Z,46.13
2018-04-15T03:52:38.475Z,47.87
2018-04-15T03:55:06.703Z,46.47
2018-04-15T03:57:35.715Z,44.67
2018-04-15T04:00:03.947Z,46.37
2018-04-15T04:02:32.204Z,46.00
2018-04-15T04:05:00.434Z,44.50
2018-04-15T04:07:28.680Z,45.00
2018-04-15T04:09:57.679Z,46.67
2018-04-15T04:12:26.682Z,43.93
2018-04-15T04:14:54.911Z,44.63
2018-04-15T04:20:41.255Z,45.33
2018-04-15T04:23:22.239Z,46.10
2018-04-15T04:26:06.108Z,44.20
2018-04-15T04:28:34.356Z,46.20
2018-04-15T04:31:02.592Z,45.73
2018-04-15T04:33:30.838Z,45.77
2018-04-15T04:35:59.082Z,47.43
2018-04-15T04:38:27.334Z,45.20
2018-04-15T04:40:56.334Z,43.93
2018-04-15T04:43:25.367Z,42.10
2018-04-15T04:45:53.599Z,43.07
2018-04-15T04:48:22.680Z,41.47
2018-04-15T04:50:50.914Z,41.40
2018-04-15T04:53:19.148Z,42.90
2018-04-15T04:55:48.199Z,42.63
2018-04-15T04:58:16.432Z,43.77
2018-04-15T05:00:44.683Z,42.27
2018-04-15T05:03:13.682Z,44.43
2018-04-15T05:05:42.700Z,44.73
2018-04-15T05:08:10.926Z,46.43
2018-04-15T05:10:39.943Z,47.93
2018-04-15T05:13:08.177Z,51.00
2018-04-15T05:15:36.427Z,51.27
2018-04-15T05:18:04.684Z,52.27
2018-04-15T05:20:32.926Z,52.50
2018-04-15T05:23:01.933Z,53.40
2018-04-15T05:25:30.188Z,54.27
2018-04-15T05:27:59.187Z,52.93
2018-04-15T05:30:27.444Z,53.07
2018-04-15T05:32:56.443Z,54.57
2018-04-15T05:35:25.467Z,53.67
2018-04-15T05:37:53.706Z,53.43
2018-04-15T05:40:22.744Z,54.10
2018-04-15T05:42:50.982Z,53.83
2018-04-15T05:45:20.007Z,52.13
2018-04-15T05:47:48.247Z,51.37
2018-04-15T05:50:17.274Z,52.40
2018-04-15T05:52:45.510Z,52.33
2018-04-15T05:55:14.535Z,51.83
2018-04-15T05:57:42.770Z,51.50
2018-04-15T06:00:11.771Z,50.50
2018-04-15T06:02:40.787Z,50.60
2018-04-15T06:05:09.028Z,52.07
2018-04-15T06:07:38.043Z,49.57
2018-04-15T06:10:06.285Z,51.37
2018-04-15T06:12:34.637Z,51.33
2018-04-15T06:15:02.867Z,51.63
2018-04-15T06:17:31.115Z,49.37
2018-04-15T06:20:00.111Z,50.73
2018-04-15T06:22:29.122Z,51.97
2018-04-15T06:24:57.363Z,54.37
2018-04-15T06:27:25.619Z,53.40
2018-04-15T06:29:53.855Z,54.87
2018-04-15T06:32:22.121Z,54.87
2018-04-15T06:34:50.356Z,57.70
2018-04-15T06:37:18.602Z,56.37
2018-04-15T06:39:46.839Z,56.00
2018-04-15T06:42:15.091Z,55.40
2018-04-15T06:44:44.091Z,56.70
2018-04-15T06:47:13.114Z,57.17
2018-04-15T06:49:41.346Z,60.47
2018-04-15T06:52:10.371Z,58.30
2018-04-15T06:54:39.114Z,60.87
2018-04-15T06:57:07.344Z,56.20
2018-04-15T06:59:35.647Z,59.50
2018-04-15T07:02:03.906Z,61.40
2018-04-15T07:04:32.147Z,61.17
2018-04-15T07:07:00.392Z,64.20
2018-04-15T07:09:29.397Z,62.30
2018-04-15T07:11:58.419Z,65.80
2018-04-15T07:14:26.655Z,65.53
2018-04-15T07:16:55.663Z,64.07
2018-04-15T07:19:23.922Z,65.07
2018-04-15T07:21:52.928Z,67.07
2018-04-15T07:24:21.182Z,67.17
2018-04-15T07:26:50.178Z,69.77
2018-04-15T07:29:19.203Z,70.43
2018-04-15T07:31:47.466Z,67.43
2018-04-15T07:34:15.926Z,70.23
2018-04-15T07:36:44.491Z,72.43
2018-04-15T07:39:13.892Z,71.97
2018-04-15T07:41:43.191Z,73.93
2018-04-15T07:44:11.676Z,78.87
2018-04-15T07:46:40.969Z,75.00
2018-04-15T07:49:10.167Z,79.60
2018-04-15T07:51:39.363Z,79.30
2018-04-15T07:54:08.686Z,80.27
2018-04-15T07:56:37.143Z,76.23
2018-04-15T07:59:06.445Z,76.83
2018-04-15T08:01:34.956Z,76.07
2018-04-15T08:04:04.139Z,73.33
2018-04-15T08:06:33.376Z,73.87
2018-04-15T08:09:03.653Z,74.53
2018-04-15T08:11:33.053Z,71.17
2018-04-15T08:14:02.574Z,72.23
2018-04-15T08:16:31.838Z,73.67
2018-04-15T08:19:00.930Z,70.20
2018-04-15T08:21:30.303Z,71.97
2018-04-15T08:23:59.589Z,72.30
2018-04-15T08:26:30.542Z,72.83
2018-04-15T08:29:00.870Z,70.93
2018-04-15T08:31:29.986Z,68.40
2018-04-15T08:34:00.158Z,70.77
2018-04-15T08:36:29.632Z,70.57
2018-04-15T08:39:00.816Z,70.13
2018-04-15T08:41:30.109Z,76.77
2018-04-15T08:43:59.696Z,68.70
2018-04-15T08:46:28.767Z,68.93
2018-04-15T08:48:58.113Z,66.63
2018-04-15T08:51:27.677Z,76.33
2018-04-15T08:53:57.049Z,74.80
2018-04-15T08:56:26.449Z,69.97
2018-04-15T08:58:55.957Z,68.33
2018-04-15T09:01:25.150Z,67.03
2018-04-15T09:03:54.819Z,65.00
2018-04-15T09:06:24.130Z,61.40
2018-04-15T09:08:55.151Z,64.93
2018-04-15T09:11:24.596Z,61.93
2018-04-15T09:13:54.958Z,64.67
2018-04-15T09:16:24.679Z,63.07
2018-04-15T09:18:55.914Z,62.80
2018-04-15T09:21:25.657Z,60.13
2018-04-15T09:23:54.774Z,58.57
2018-04-15T09:29:00.929Z,58.80
2018-04-15T09:31:30.614Z,54.93
2018-04-15T09:34:00.371Z,55.63
2018-04-15T09:36:31.184Z,53.63
2018-04-15T09:39:00.331Z,52.50
2018-04-15T09:41:30.208Z,51.13
2018-04-15T09:44:01.222Z,50.50
2018-04-15T09:46:30.238Z,56.63
2018-04-15T09:49:00.192Z,49.60
2018-04-15T09:51:29.484Z,49.70
2018-04-15T09:53:59.749Z,47.63
2018-04-15T09:56:30.170Z,47.50
2018-04-15T09:58:59.869Z,48.13
2018-04-15T10:01:30.456Z,44.03
2018-04-15T10:04:01.316Z,45.63
2018-04-15T10:06:30.628Z,44.73
2018-04-15T10:08:59.953Z,46.27
2018-04-15T10:11:30.287Z,46.33
2018-04-15T10:14:00.201Z,45.33
2018-04-15T10:16:29.477Z,44.00
2018-04-15T10:18:59.615Z,43.33
2018-04-15T10:21:29.734Z,40.60
2018-04-15T10:23:58.677Z,41.67
2018-04-15T10:26:28.519Z,41.63
2018-04-15T10:28:57.454Z,42.57
2018-04-15T10:31:26.995Z,42.07
2018-04-15T10:33:57.641Z,44.03
2018-04-15T10:36:26.638Z,43.77
2018-04-15T10:38:56.348Z,42.00
2018-04-15T10:41:25.091Z,42.50
2018-04-15T10:43:53.834Z,43.70
2018-04-15T10:46:23.492Z,44.77
2018-04-15T10:48:52.604Z,45.43
2018-04-15T10:51:21.499Z,44.80
2018-04-15T10:53:50.636Z,44.23
2018-04-15T10:56:19.985Z,44.60
2018-04-15T10:58:49.039Z,41.80
2018-04-15T11:01:17.971Z,40.70
2018-04-15T11:03:47.668Z,39.33
2018-04-15T11:06:16.487Z,38.90
2018-04-15T11:08:45.547Z,38.03
2018-04-15T11:11:15.336Z,35.87
2018-04-15T11:13:44.263Z,33.93
2018-04-15T11:16:13.155Z,30.83
2018-04-15T11:18:42.195Z,35.83
2018-04-15T11:21:11.326Z,31.63
2018-04-15T11:23:40.276Z,29.60
2018-04-15T11:26:10.080Z,26.73
2018-04-15T11:28:38.979Z,27.70
2018-04-15T11:31:08.807Z,24.10
2018-04-15T11:33:37.946Z,23.27
2018-04-15T11:36:07.859Z,21.73
2018-04-15T11:38:36.930Z,21.53
2018-04-15T11:41:06.007Z,22.13
2018-04-15T11:43:34.951Z,21.57
2018-04-15T11:46:03.959Z,21.03
2018-04-15T11:48:33.599Z,20.40
2018-04-15T11:51:03.575Z,19.30
2018-04-15T11:53:32.684Z,21.57
2018-04-15T11:56:01.761Z,19.93
2018-04-15T11:58:30.818Z,20.43
2018-04-15T12:00:59.871Z,20.57
2018-04-15T12:03:28.839Z,21.60
2018-04-15T12:05:58.598Z,20.03
2018-04-15T12:08:27.464Z,18.27
2018-04-15T12:10:57.184Z,17.77
2018-04-15T12:13:27.416Z,17.10
2018-04-15T12:15:57.030Z,17.80
2018-04-15T12:18:25.895Z,17.50
2018-04-15T12:20:54.717Z,19.83
2018-04-15T12:23:29.261Z,19.80
2018-04-15T12:25:57.731Z,18.43
2018-04-15T12:28:26.500Z,18.47
2018-04-15T12:30:55.563Z,17.17
2018-04-15T12:33:24.301Z,15.67
2018-04-15T12:35:53.127Z,14.87
2018-04-15T12:38:21.988Z,15.17
2018-04-15T12:40:50.637Z,14.20
2018-04-15T12:43:19.331Z,13.83
2018-04-15T12:45:49.083Z,14.00
2018-04-15T12:48:18.033Z,13.70
2018-04-15T12:50:46.695Z,14.20
2018-04-15T12:53:16.425Z,14.10
2018-04-15T12:55:45.497Z,13.17
2018-04-15T12:58:14.555Z,13.37
2018-04-15T13:00:44.432Z,13.67
2018-04-15T13:03:13.906Z,13.73
2018-04-15T13:05:42.723Z,13.30
2018-04-15T13:08:11.611Z,13.30
2018-04-15T13:10:40.846Z,13.63
2018-04-15T13:13:09.705Z,13.60
2018-04-15T13:15:38.633Z,13.60
2018-04-15T13:18:07.602Z,13.77
2018-04-15T13:20:37.343Z,13.00
2018-04-15T13:23:06.395Z,13.43
2018-04-15T13:25:36.164Z,13.13
2018-04-15T13:28:04.998Z,16.17
2018-04-15T13:30:34.666Z,16.13
2018-04-15T13:33:04.499Z,14.90
2018-04-15T13:35:34.289Z,15.57
2018-04-15T13:38:03.168Z,14.47
2018-04-15T13:40:32.898Z,14.87
2018-04-15T13:43:02.100Z,14.23
2018-04-15T13:45:30.961Z,14.80
2018-04-15T13:47:59.926Z,14.73
2018-04-15T13:50:28.868Z,15.60
2018-04-15T13:52:57.513Z,14.93
2018-04-15T13:55:26.310Z,14.90
2018-04-15T13:57:55.275Z,14.80
2018-04-15T14:00:24.118Z,14.23
2018-04-15T14:02:53.010Z,14.77
2018-04-15T14:05:22.510Z,15.60
2018-04-15T14:07:51.365Z,16.10
2018-04-15T14:10:20.928Z,15.40
2018-04-15T14:12:49.807Z,16.10
2018-04-15T14:15:19.447Z,15.60
2018-04-15T14:17:49.273Z,15.23
2018-04-15T14:20:18.167Z,15.03
2018-04-15T14:22:47.748Z,16.23
2018-04-15T14:25:17.584Z,15.93
2018-04-15T14:27:46.393Z,15.47
2018-04-15T14:30:15.380Z,15.50
2018-04-15T14:32:43.766Z,15.20
2018-04-15T14:35:12.406Z,14.20
2018-04-15T14:37:41.095Z,14.03
2018-04-15T14:40:10.665Z,15.90
2018-04-15T14:42:40.295Z,16.87
2018-04-15T14:45:09.418Z,17.87
2018-04-15T14:47:38.069Z,16.23
2018-04-15T14:50:07.675Z,16.97
2018-04-15T14:52:36.566Z,15.37
2018-04-15T14:55:05.399Z,16.37
2018-04-15T14:57:34.329Z,16.00
2018-04-15T15:00:03.306Z,15.67
2018-04-15T15:02:32.229Z,16.03
2018-04-15T15:05:01.209Z,14.97
2018-04-15T15:07:30.020Z,15.90
2018-04-15T15:09:58.992Z,16.23
2018-04-15T15:12:27.847Z,16.83
2018-04-15T15:14:56.823Z,16.50
2018-04-15T15:17:25.618Z,15.83
2018-04-15T15:19:55.113Z,15.73
2018-04-15T15:22:24.596Z,16.10
2018-04-15T15:24:54.009Z,16.43
2018-04-15T15:27:23.356Z,15.03
2018-04-15T15:29:51.853Z,16.23
2018-04-15T15:32:20.591Z,14.90
2018-04-15T15:34:48.895Z,16.10
2018-04-15T15:37:17.493Z,17.77
2018-04-15T15:39:46.169Z,15.93
2018-04-15T15:42:14.916Z,15.80
2018-04-15T15:44:43.231Z,16.17
2018-04-15T15:47:11.602Z,15.20
2018-04-15T15:49:40.603Z,16.33
2018-04-15T15:52:08.994Z,15.67
2018-04-15T15:54:38.046Z,15.33
2018-04-15T15:57:07.199Z,14.80
2018-04-15T15:59:35.485Z,15.20
2018-04-15T16:02:03.684Z,16.27
2018-04-15T16:04:32.899Z,16.10
2018-04-15T16:07:01.254Z,16.90
2018-04-15T16:09:30.426Z,14.10
2018-04-15T16:11:58.666Z,14.27
2018-04-15T16:14:26.928Z,13.80
2018-04-15T16:16:55.199Z,14.33
2018-04-15T16:19:23.858Z,13.50
2018-04-15T16:21:52.321Z,13.80
2018-04-15T16:24:20.535Z,13.97
2018-04-15T16:26:48.875Z,14.23
2018-04-15T16:29:17.175Z,17.30
2018-04-15T16:31:45.487Z,15.10
2018-04-15T16:34:13.766Z,14.80
2018-04-15T16:36:42.017Z,15.60
2018-04-15T16:39:10.475Z,15.40
2018-04-15T16:41:39.479Z,16.63
2018-04-15T16:44:07.726Z,16.03
2018-04-15T16:46:36.736Z,15.80
2018-04-15T16:49:05.775Z,14.93
2018-04-15T16:51:34.011Z,20.90
2018-04-15T16:54:02.316Z,17.10
2018-04-15T16:56:31.287Z,16.23
2018-04-15T16:58:59.532Z,17.23
2018-04-15T17:01:28.599Z,18.50
2018-04-15T17:03:56.923Z,17.23
2018-04-15T17:06:25.197Z,19.00
2018-04-15T17:08:53.457Z,18.50
2018-04-15T17:11:22.477Z,19.30
2018-04-15T17:13:50.712Z,20.10
2018-04-15T17:16:19.771Z,20.47
2018-04-15T17:18:48.027Z,19.93
2018-04-15T17:21:16.267Z,22.27
2018-04-15T17:23:44.599Z,25.73
2018-04-15T17:26:12.845Z,21.33
2018-04-15T17:28:41.095Z,21.43
2018-04-15T17:31:09.343Z,22.47
2018-04-15T17:33:38.362Z,21.37
2018-04-15T17:36:06.599Z,27.27
2018-04-15T17:38:34.842Z,21.73
2018-04-15T17:41:03.082Z,21.40
2018-04-15T17:43:31.339Z,22.43
2018-04-15T17:46:00.347Z,21.77
2018-04-15T17:48:28.603Z,22.97
2018-04-15T17:50:57.614Z,21.87
2018-04-15T17:53:25.871Z,22.13
2018-04-15T17:55:54.884Z,22.13
2018-04-15T17:58:23.123Z,22.47
2018-04-15T18:00:51.415Z,22.83
2018-04-15T18:03:20.728Z,21.43
2018-04-15T18:05:49.745Z,23.20
2018-04-15T18:08:17.979Z,23.27
2018-04-15T18:10:47.001Z,22.07
2018-04-15T18:13:15.278Z,23.70
2018-04-15T18:15:45.652Z,22.97
2018-04-15T18:18:14.410Z,22.37
2018-04-15T18:20:43.420Z,23.07
2018-04-15T18:23:12.445Z,23.17
2018-04-15T18:25:41.760Z,22.90
2018-04-15T18:28:10.805Z,23.13
2018-04-15T18:30:39.944Z,23.13
2018-04-15T18:33:08.996Z,23.23
2018-04-15T18:35:38.312Z,24.03
2018-04-15T18:38:07.128Z,23.73
2018-04-15T18:40:36.035Z,23.87
2018-04-15T18:43:04.825Z,24.30
2018-04-15T18:45:34.003Z,23.03
2018-04-15T18:48:03.049Z,21.70
2018-04-15T18:50:31.829Z,21.33
2018-04-15T18:53:01.450Z,23.87
2018-04-15T18:55:30.961Z,24.10
2018-04-15T18:57:59.702Z,23.87
2018-04-15T19:00:28.686Z,22.20
2018-04-15T19:02:58.307Z,23.47
2018-04-15T19:05:27.876Z,22.27
2018-04-15T19:07:56.685Z,25.10
2018-04-15T19:10:27.255Z,26.03
2018-04-15T19:12:56.882Z,26.07
2018-04-15T19:15:25.710Z,26.17
2018-04-15T19:17:54.793Z,27.00
2018-04-15T19:20:23.789Z,26.60
2018-04-15T19:22:52.622Z,27.20
2018-04-15T19:25:21.458Z,26.97
2018-04-15T19:27:50.168Z,28.47
2018-04-15T19:30:19.721Z,28.97
2018-04-15T19:32:48.438Z,28.70
2018-04-15T19:35:17.030Z,26.37
2018-04-15T19:37:45.757Z,28.03
2018-04-15T19:40:14.569Z,28.70
2018-04-15T19:42:43.611Z,33.23
2018-04-15T19:45:13.048Z,28.40
2018-04-15T19:47:41.937Z,27.30
2018-04-15T19:50:10.821Z,28.73
2018-04-15T19:52:39.731Z,29.33
2018-04-15T19:55:08.223Z,31.40
2018-04-15T19:57:37.182Z,29.77
2018-04-15T20:00:06.088Z,28.33
2018-04-15T20:02:34.934Z,29.07
2018-04-15T20:05:04.330Z,27.83
2018-04-15T20:07:33.098Z,26.63
2018-04-15T20:10:01.887Z,25.77
2018-04-15T20:12:30.748Z,29.67
2018-04-15T20:14:59.545Z,28.97
2018-04-15T20:17:28.414Z,29.07
2018-04-15T20:19:57.150Z,29.23
2018-04-15T20:22:25.902Z,30.97
2018-04-15T20:24:54.563Z,29.60
2018-04-15T20:27:22.843Z,31.90
2018-04-15T20:29:51.091Z,28.30
2018-04-15T20:32:20.487Z,30.07
2018-04-15T20:34:48.707Z,29.93
2018-04-15T20:37:16.971Z,29.50
2018-04-15T20:39:45.206Z,33.20
2018-04-15T20:42:13.447Z,29.87
2018-04-15T20:44:41.704Z,28.83
2018-04-15T20:47:09.943Z,30.40
2018-04-15T20:49:38.968Z,33.20
2018-04-15T20:52:07.213Z,35.47
2018-04-15T20:54:36.230Z,36.57
2018-04-15T20:57:04.482Z,27.77
2018-04-15T20:59:33.504Z,29.70
2018-04-15T21:02:01.752Z,32.37
2018-04-15T21:04:30.790Z,30.53
2018-04-15T21:06:59.039Z,32.17
2018-04-15T21:09:28.215Z,35.37
2018-04-15T21:11:56.465Z,31.80
2018-04-15T21:14:24.707Z,33.53
2018-04-15T21:16:52.953Z,32.87
2018-04-15T21:19:21.199Z,38.73
2018-04-15T21:21:50.205Z,37.33
2018-04-15T21:24:18.467Z,34.83
2018-04-15T21:26:47.468Z,37.47
2018-04-15T21:29:15.739Z,31.83
2018-04-15T21:31:44.745Z,35.77
2018-04-15T21:34:12.998Z,42.80
2018-04-15T21:36:42.013Z,45.20
2018-04-15T21:39:10.268Z,41.03
2018-04-15T21:41:39.282Z,42.20
2018-04-15T21:44:07.936Z,32.53
2018-04-15T21:46:36.948Z,38.63
2018-04-15T21:49:05.207Z,34.80
2018-04-15T21:51:34.216Z,33.37
2018-04-15T21:54:02.475Z,36.17
2018-04-15T21:56:31.487Z,40.83
2018-04-15T21:58:59.748Z,42.30
2018-04-15T22:01:28.754Z,38.10
2018-04-15T22:03:57.011Z,40.47
2018-04-15T22:06:26.017Z,43.80
2018-04-15T22:08:54.275Z,42.00
2018-04-15T22:11:35.135Z,39.53
2018-04-15T22:14:04.162Z,40.47
2018-04-15T22:16:32.410Z,47.80
2018-04-15T22:19:01.461Z,46.07
2018-04-15T22:21:30.781Z,45.00
2018-04-15T22:26:34.358Z,43.50
2018-04-15T22:29:02.616Z,44.13
2018-04-15T22:31:30.856Z,43.40
2018-04-15T22:33:59.859Z,41.57
2018-04-15T22:36:28.114Z,44.23
2018-04-15T22:38:57.164Z,40.47
2018-04-15T22:41:26.142Z,41.07
2018-04-15T22:43:54.381Z,41.17
2018-04-15T22:46:23.395Z,40.40
2018-04-15T22:48:56.581Z,41.03
2018-04-15T22:51:25.595Z,40.53
2018-04-15T22:53:53.843Z,41.60
2018-04-15T22:56:22.862Z,45.53
2018-04-15T22:58:51.088Z,42.13
2018-04-15T23:01:20.132Z,37.00
2018-04-15T23:03:48.365Z,37.67
2018-04-15T23:06:17.383Z,35.33
2018-04-15T23:08:45.617Z,40.67
2018-04-15T23:11:14.636Z,39.77
2018-04-15T23:13:42.864Z,36.70
2018-04-15T23:16:11.115Z,38.80
2018-04-15T23:18:39.347Z,43.40
2018-04-15T23:21:08.362Z,42.17
2018-04-15T23:23:36.604Z,35.67
2018-04-15T23:26:05.616Z,35.93
2018-04-15T23:28:33.851Z,37.60
2018-04-15T23:31:02.095Z,35.87
2018-04-15T23:33:30.331Z,30.40
2018-04-15T23:35:59.339Z,28.67
2018-04-15T23:38:27.581Z,28.80
2018-04-15T23:40:56.596Z,26.60
2018-04-15T23:43:24.823Z,27.00
2018-04-15T23:45:53.084Z,30.27
2018-04-15T23:48:21.318Z,33.57
2018-04-15T23:50:49.879Z,42.23
2018-04-15T23:53:18.880Z,38.27
2018-04-15T23:55:47.892Z,40.47
2018-04-15T23:58:16.127Z,39.50
